createdAt,value
2018-03-21T00:01:48.459Z,25.56
2018-03-21T00:04:17.924Z,25.24
2018-03-21T00:06:47.020Z,26.61
2018-03-21T00:09:15.711Z,25.77
2018-03-21T00:11:44.353Z,25.34
2018-03-21T00:14:13.321Z,25.04
2018-03-21T00:16:43.712Z,24.70
2018-03-21T00:19:12.335Z,23.88
2018-03-21T00:21:41.802Z,24.82
2018-03-21T00:24:10.591Z,24.78
2018-03-21T00:26:39.236Z,24.87
2018-03-21T00:29:07.962Z,24.43
2018-03-21T00:31:36.648Z,23.87
2018-03-21T00:34:05.335Z,22.99
2018-03-21T00:36:34.120Z,22.70
2018-03-21T00:39:02.805Z,24.05
2018-03-21T00:41:31.447Z,24.89
2018-03-21T00:44:00.176Z,25.01
2018-03-21T00:46:28.863Z,25.23
2018-03-21T00:48:57.440Z,22.23
2018-03-21T00:51:26.193Z,23.78
2018-03-21T00:53:54.920Z,25.17
2018-03-21T00:56:23.465Z,24.94
2018-03-21T00:58:52.193Z,25.81
2018-03-21T01:01:21.690Z,25.51
2018-03-21T01:03:50.336Z,24.98
2018-03-21T01:06:19.062Z,25.23
2018-03-21T01:08:47.747Z,25.31
2018-03-21T01:11:16.433Z,24.95
2018-03-21T01:13:45.228Z,25.44
2018-03-21T01:16:13.894Z,25.45
2018-03-21T01:18:42.538Z,24.86
2018-03-21T01:21:12.202Z,24.58
2018-03-21T01:23:40.885Z,23.93
2018-03-21T01:26:09.579Z,23.70
2018-03-21T01:28:38.313Z,24.38
2018-03-21T01:31:07.763Z,24.93
2018-03-21T01:33:36.400Z,24.19
2018-03-21T01:36:05.139Z,25.14
2018-03-21T01:38:33.882Z,25.24
2018-03-21T01:41:02.615Z,23.86
2018-03-21T01:43:31.542Z,21.92
2018-03-21T01:46:01.013Z,22.68
2018-03-21T01:48:29.708Z,22.58
2018-03-21T01:50:59.093Z,23.91
2018-03-21T01:53:27.778Z,24.69
2018-03-21T01:55:56.464Z,24.48
2018-03-21T01:58:25.567Z,24.85
2018-03-21T02:00:54.253Z,25.36
2018-03-21T02:03:22.829Z,24.94
2018-03-21T02:05:52.479Z,24.87
2018-03-21T02:08:22.154Z,23.83
2018-03-21T02:10:50.791Z,22.38
2018-03-21T02:13:20.286Z,23.24
2018-03-21T02:15:49.637Z,23.68
2018-03-21T02:18:18.225Z,24.79
2018-03-21T02:20:47.316Z,25.13
2018-03-21T02:23:15.957Z,25.13
2018-03-21T02:25:44.687Z,25.31
2018-03-21T02:28:13.482Z,21.90
2018-03-21T02:30:42.169Z,23.18
2018-03-21T02:33:10.802Z,22.91
2018-03-21T02:35:40.768Z,23.78
2018-03-21T02:38:09.411Z,23.78
2018-03-21T02:40:38.140Z,23.35
2018-03-21T02:43:07.134Z,22.11
2018-03-21T02:45:35.711Z,22.06
2018-03-21T02:48:04.434Z,22.86
2018-03-21T02:50:33.905Z,20.70
2018-03-21T02:53:02.596Z,22.47
2018-03-21T02:55:31.241Z,22.31
2018-03-21T02:58:00.010Z,21.54
2018-03-21T03:00:28.746Z,21.93
2018-03-21T03:02:57.434Z,22.85
2018-03-21T03:05:26.229Z,21.64
2018-03-21T03:07:54.905Z,22.92
2018-03-21T03:10:23.599Z,20.68
2018-03-21T03:12:52.385Z,21.14
2018-03-21T03:15:20.970Z,22.65
2018-03-21T03:17:49.599Z,23.33
2018-03-21T03:20:19.319Z,23.21
2018-03-21T03:22:48.048Z,22.34
2018-03-21T03:25:16.744Z,22.57
2018-03-21T03:27:45.825Z,22.09
2018-03-21T03:30:14.513Z,23.99
2018-03-21T03:32:43.160Z,23.26
2018-03-21T03:35:12.026Z,22.67
2018-03-21T03:37:41.491Z,24.24
2018-03-21T03:40:10.176Z,23.98
2018-03-21T03:42:38.775Z,23.99
2018-03-21T03:45:07.449Z,22.10
2018-03-21T03:47:36.136Z,22.39
2018-03-21T03:50:04.920Z,24.44
2018-03-21T03:52:33.605Z,24.28
2018-03-21T03:55:02.271Z,24.75
2018-03-21T03:57:31.035Z,24.98
2018-03-21T04:00:00.486Z,25.05
2018-03-21T04:02:29.173Z,23.88
2018-03-21T04:04:57.868Z,24.87
2018-03-21T04:07:26.643Z,24.49
2018-03-21T04:09:55.428Z,22.98
2018-03-21T04:12:24.123Z,23.80
2018-03-21T04:14:52.762Z,24.09
2018-03-21T04:17:21.495Z,23.95
2018-03-21T04:19:50.488Z,23.58
2018-03-21T04:22:19.273Z,22.31
2018-03-21T04:24:47.825Z,23.06
2018-03-21T04:27:16.705Z,23.22
2018-03-21T04:29:45.429Z,22.72
2018-03-21T04:32:14.065Z,23.26
2018-03-21T04:34:42.801Z,24.74
2018-03-21T04:37:11.485Z,23.86
2018-03-21T04:39:40.119Z,22.42
2018-03-21T04:42:09.586Z,22.52
2018-03-21T04:44:38.304Z,22.60
2018-03-21T04:47:08.077Z,23.50
2018-03-21T04:49:36.760Z,24.06
2018-03-21T04:52:05.408Z,24.09
2018-03-21T04:54:34.130Z,24.12
2018-03-21T04:57:03.069Z,22.47
2018-03-21T04:59:32.538Z,22.92
2018-03-21T05:02:01.212Z,22.50
2018-03-21T05:04:30.102Z,23.90
2018-03-21T05:06:58.788Z,25.06
2018-03-21T05:09:27.474Z,23.79
2018-03-21T05:11:56.466Z,22.96
2018-03-21T05:14:25.095Z,22.18
2018-03-21T05:16:54.562Z,22.12
2018-03-21T05:19:23.555Z,22.01
2018-03-21T05:21:53.164Z,21.37
2018-03-21T05:24:21.918Z,22.35
2018-03-21T05:26:51.407Z,22.85
2018-03-21T05:29:20.856Z,20.09
2018-03-21T05:31:49.432Z,20.31
2018-03-21T05:34:18.266Z,19.66
2018-03-21T05:36:47.729Z,19.72
2018-03-21T05:39:16.370Z,19.60
2018-03-21T05:41:45.872Z,20.05
2018-03-21T05:44:14.606Z,19.80
2018-03-21T05:46:43.252Z,18.69
2018-03-21T05:49:13.169Z,19.15
2018-03-21T05:51:41.892Z,18.81
2018-03-21T05:54:10.576Z,20.49
2018-03-21T05:56:39.309Z,20.69
2018-03-21T05:59:07.886Z,19.36
2018-03-21T06:01:36.433Z,19.97
2018-03-21T06:04:05.354Z,19.64
2018-03-21T06:06:33.903Z,18.65
2018-03-21T06:09:02.476Z,18.96
2018-03-21T06:11:31.076Z,19.35
2018-03-21T06:13:59.631Z,19.26
2018-03-21T06:16:28.953Z,19.80
2018-03-21T06:18:57.654Z,18.62
2018-03-21T06:21:26.375Z,19.74
2018-03-21T06:23:54.934Z,18.76
2018-03-21T06:26:23.538Z,18.96
2018-03-21T06:28:52.084Z,18.69
2018-03-21T06:31:20.629Z,20.88
2018-03-21T06:33:50.100Z,21.16
2018-03-21T06:36:18.664Z,22.33
2018-03-21T06:38:47.241Z,20.84
2018-03-21T06:41:15.840Z,20.50
2018-03-21T06:43:44.398Z,21.38
2018-03-21T06:46:12.953Z,21.52
2018-03-21T06:48:41.985Z,23.49
2018-03-21T06:51:10.671Z,23.06
2018-03-21T06:53:39.357Z,23.52
2018-03-21T06:56:08.141Z,23.23
2018-03-21T06:58:36.827Z,21.35
2018-03-21T07:01:05.377Z,20.24
2018-03-21T07:03:33.988Z,21.07
2018-03-21T07:06:02.542Z,20.24
2018-03-21T07:08:31.215Z,21.98
2018-03-21T07:11:00.182Z,20.97
2018-03-21T07:13:51.120Z,21.63
2018-03-21T07:16:38.485Z,22.01
2018-03-21T07:19:07.133Z,22.46
2018-03-21T07:21:35.857Z,19.95
2018-03-21T07:24:04.507Z,21.73
2018-03-21T07:26:33.186Z,20.92
2018-03-21T07:29:01.829Z,21.81
2018-03-21T07:31:30.871Z,21.49
2018-03-21T07:33:59.425Z,21.33
2018-03-21T07:36:28.894Z,20.69
2018-03-21T07:38:57.888Z,21.91
2018-03-21T07:41:26.577Z,20.95
2018-03-21T07:43:55.259Z,21.61
2018-03-21T07:46:25.074Z,22.00
2018-03-21T07:48:53.653Z,22.19
2018-03-21T07:51:22.348Z,21.58
2018-03-21T07:53:51.033Z,21.02
2018-03-21T07:56:19.718Z,21.94
2018-03-21T07:58:48.711Z,21.91
2018-03-21T08:01:17.485Z,21.28
2018-03-21T08:03:46.130Z,23.84
2018-03-21T08:06:15.454Z,21.90
2018-03-21T08:08:44.372Z,23.35
2018-03-21T08:11:12.924Z,23.56
2018-03-21T08:13:41.473Z,22.72
2018-03-21T08:16:10.853Z,21.80
2018-03-21T08:18:39.404Z,22.87
2018-03-21T08:21:07.961Z,23.65
2018-03-21T08:23:36.561Z,22.63
2018-03-21T08:26:05.141Z,22.32
2018-03-21T08:28:33.693Z,24.35
2018-03-21T08:31:03.062Z,24.30
2018-03-21T08:33:31.618Z,23.76
2018-03-21T08:36:00.202Z,22.93
2018-03-21T08:38:28.950Z,21.91
2018-03-21T08:40:58.269Z,22.00
2018-03-21T08:43:26.870Z,20.68
2018-03-21T08:45:55.665Z,21.49
2018-03-21T08:48:24.222Z,22.09
2018-03-21T08:50:52.769Z,22.28
2018-03-21T08:53:21.706Z,21.12
2018-03-21T08:55:50.264Z,22.65
2018-03-21T08:58:19.585Z,20.34
2018-03-21T09:00:48.581Z,21.34
2018-03-21T09:03:17.202Z,22.32
2018-03-21T09:05:45.758Z,22.81
2018-03-21T09:08:15.186Z,23.31
2018-03-21T09:10:43.736Z,22.68
2018-03-21T09:13:12.283Z,22.93
2018-03-21T09:15:41.113Z,21.64
2018-03-21T09:18:09.669Z,21.26
2018-03-21T09:20:38.222Z,22.55
2018-03-21T09:23:07.588Z,23.66
2018-03-21T09:25:36.141Z,22.54
2018-03-21T09:28:04.693Z,23.22
2018-03-21T09:30:34.251Z,21.51
2018-03-21T09:33:02.806Z,21.70
2018-03-21T09:35:31.356Z,23.05
2018-03-21T09:38:00.726Z,22.45
2018-03-21T09:40:29.280Z,21.28
2018-03-21T09:42:57.842Z,21.36
2018-03-21T09:45:26.438Z,22.06
2018-03-21T09:47:54.998Z,22.03
2018-03-21T09:50:24.317Z,23.01
2018-03-21T09:52:53.133Z,22.98
2018-03-21T09:55:21.683Z,23.89
2018-03-21T09:57:50.242Z,22.70
2018-03-21T10:00:19.807Z,24.86
2018-03-21T10:02:48.362Z,23.04
2018-03-21T10:05:16.917Z,24.00
2018-03-21T10:07:46.586Z,25.17
2018-03-21T10:10:15.140Z,26.37
2018-03-21T10:12:43.697Z,25.91
2018-03-21T10:15:13.101Z,26.32
2018-03-21T10:17:42.422Z,27.69
2018-03-21T10:20:10.972Z,25.57
2018-03-21T10:22:39.573Z,26.03
2018-03-21T10:25:08.129Z,27.65
2018-03-21T10:27:36.684Z,28.10
2018-03-21T10:30:05.476Z,27.44
2018-03-21T10:32:34.065Z,26.09
2018-03-21T10:35:02.622Z,25.53
2018-03-21T10:37:31.233Z,25.80
2018-03-21T10:39:59.790Z,25.24
2018-03-21T10:42:29.109Z,24.75
2018-03-21T10:44:57.755Z,25.11
2018-03-21T10:47:27.133Z,27.55
2018-03-21T10:49:55.824Z,27.91
2018-03-21T10:52:24.766Z,26.46
2018-03-21T10:54:54.092Z,26.63
2018-03-21T10:57:22.653Z,26.39
2018-03-21T10:59:51.258Z,26.96
2018-03-21T11:02:19.891Z,27.66
2018-03-21T11:04:48.444Z,26.23
2018-03-21T11:07:19.692Z,27.57
2018-03-21T11:09:48.249Z,25.78
2018-03-21T11:12:16.814Z,25.63
2018-03-21T11:14:45.650Z,25.19
2018-03-21T11:17:14.197Z,25.63
2018-03-21T11:19:42.757Z,25.10
2018-03-21T11:22:12.120Z,25.53
2018-03-21T11:24:40.673Z,25.15
2018-03-21T11:27:09.222Z,25.11
2018-03-21T11:29:38.988Z,25.05
2018-03-21T11:32:07.537Z,24.79
2018-03-21T11:34:36.088Z,24.89
2018-03-21T11:37:04.689Z,24.62
2018-03-21T11:39:33.243Z,24.56
2018-03-21T11:42:01.830Z,24.17
2018-03-21T11:44:30.439Z,24.18
2018-03-21T11:46:59.178Z,23.87
2018-03-21T11:49:27.762Z,23.83
2018-03-21T11:51:56.358Z,23.82
2018-03-21T11:54:25.134Z,23.83
2018-03-21T11:56:53.715Z,22.86
2018-03-21T11:59:22.400Z,23.08
2018-03-21T12:01:51.093Z,23.52
2018-03-21T12:04:19.710Z,23.31
2018-03-21T12:06:49.484Z,23.39
2018-03-21T12:09:18.124Z,24.43
2018-03-21T12:11:46.856Z,24.13
2018-03-21T12:14:15.851Z,23.94
2018-03-21T12:16:44.633Z,24.23
2018-03-21T12:19:13.226Z,23.53
2018-03-21T12:21:42.138Z,23.76
2018-03-21T12:24:10.899Z,24.51
2018-03-21T12:26:39.585Z,24.80
2018-03-21T12:29:08.517Z,24.88
2018-03-21T12:31:37.933Z,24.41
2018-03-21T12:34:06.662Z,25.08
2018-03-21T12:36:35.619Z,25.03
2018-03-21T12:39:04.450Z,23.78
2018-03-21T12:41:33.137Z,24.22
2018-03-21T12:44:02.224Z,25.79
2018-03-21T12:46:30.914Z,25.33
2018-03-21T12:48:59.476Z,26.24
2018-03-21T12:51:28.289Z,26.10
2018-03-21T12:53:57.021Z,24.29
2018-03-21T12:56:25.784Z,26.78
2018-03-21T12:58:54.804Z,27.00
2018-03-21T13:01:24.258Z,26.85
2018-03-21T13:03:52.944Z,24.98
2018-03-21T13:06:21.909Z,25.77
2018-03-21T13:08:50.649Z,27.53
2018-03-21T13:11:20.233Z,28.33
2018-03-21T13:13:49.108Z,26.68
2018-03-21T13:16:17.719Z,26.28
2018-03-21T13:18:47.213Z,27.88
2018-03-21T13:21:16.202Z,28.40
2018-03-21T13:23:44.888Z,27.78
2018-03-21T13:26:13.464Z,27.42
2018-03-21T13:28:42.467Z,28.88
2018-03-21T13:31:11.111Z,29.65
2018-03-21T13:33:39.839Z,27.48
2018-03-21T13:36:08.576Z,25.50
2018-03-21T13:38:37.310Z,28.51
2018-03-21T13:41:05.996Z,27.73
2018-03-21T13:43:34.881Z,27.83
2018-03-21T13:46:03.570Z,28.15
2018-03-21T13:48:32.317Z,27.51
2018-03-21T13:51:01.051Z,28.69
2018-03-21T13:53:29.753Z,25.83
2018-03-21T13:55:59.240Z,26.03
2018-03-21T13:58:28.024Z,25.58
2018-03-21T14:00:56.710Z,27.59
2018-03-21T14:03:25.349Z,28.15
2018-03-21T14:05:54.239Z,28.96
2018-03-21T14:08:23.690Z,28.06
2018-03-21T14:10:52.277Z,28.70
2018-03-21T14:13:21.066Z,28.92
2018-03-21T14:15:49.624Z,28.46
2018-03-21T14:18:18.382Z,28.66
2018-03-21T14:20:47.026Z,27.55
2018-03-21T14:23:15.751Z,28.89
2018-03-21T14:25:45.203Z,29.20
2018-03-21T14:28:14.158Z,26.58
2018-03-21T14:30:42.882Z,24.35
2018-03-21T14:33:11.515Z,24.81
2018-03-21T14:35:40.889Z,26.49
2018-03-21T14:38:09.648Z,25.13
2018-03-21T14:40:38.241Z,24.92
2018-03-21T14:43:06.926Z,24.24
2018-03-21T14:45:36.433Z,26.81
2018-03-21T14:48:05.218Z,27.60
2018-03-21T14:50:33.914Z,28.11
2018-03-21T14:53:02.590Z,28.69
2018-03-21T14:55:31.141Z,26.76
2018-03-21T14:57:59.870Z,24.43
2018-03-21T15:00:28.432Z,26.49
2018-03-21T15:02:57.079Z,26.78
2018-03-21T15:05:26.550Z,26.19
2018-03-21T15:07:55.220Z,26.59
2018-03-21T15:10:23.809Z,25.38
2018-03-21T15:12:52.750Z,25.25
2018-03-21T15:15:22.200Z,26.75
2018-03-21T15:17:50.887Z,25.91
2018-03-21T15:20:19.728Z,25.75
2018-03-21T15:22:48.465Z,25.62
2018-03-21T15:25:17.151Z,25.51
2018-03-21T15:27:46.341Z,25.54
2018-03-21T15:30:15.140Z,25.20
2018-03-21T15:32:43.807Z,26.57
2018-03-21T15:35:12.603Z,26.14
2018-03-21T15:37:41.152Z,26.33
2018-03-21T15:40:09.874Z,25.41
2018-03-21T15:42:38.566Z,26.39
2018-03-21T15:45:07.346Z,25.99
2018-03-21T15:47:36.032Z,25.20
2018-03-21T15:50:04.773Z,26.34
2018-03-21T15:52:33.502Z,27.81
2018-03-21T15:55:02.188Z,27.40
2018-03-21T15:57:30.972Z,26.26
2018-03-21T15:59:59.620Z,27.24
2018-03-21T16:02:28.344Z,28.23
2018-03-21T16:04:57.305Z,28.77
2018-03-21T16:07:25.925Z,28.41
2018-03-21T16:09:54.473Z,29.12
2018-03-21T16:12:23.089Z,28.50
2018-03-21T16:14:51.776Z,28.74
2018-03-21T16:17:20.420Z,28.45
2018-03-21T16:19:49.037Z,25.95
2018-03-21T16:22:17.588Z,25.47
2018-03-21T16:24:46.319Z,25.26
2018-03-21T16:27:15.993Z,26.62
2018-03-21T16:29:44.670Z,27.88
2018-03-21T16:32:13.304Z,28.70
2018-03-21T16:34:42.772Z,27.58
2018-03-21T16:39:56.798Z,28.12
2018-03-21T16:42:25.504Z,28.41
2018-03-21T16:44:54.091Z,27.73
2018-03-21T16:47:23.247Z,27.17
2018-03-21T16:49:51.978Z,26.91
2018-03-21T16:52:20.660Z,26.67
2018-03-21T16:54:49.451Z,26.31
2018-03-21T16:57:18.017Z,26.22
2018-03-21T16:59:46.728Z,27.23
2018-03-21T17:02:15.882Z,27.56
2018-03-21T17:04:44.551Z,27.33
2018-03-21T17:07:13.283Z,26.63
2018-03-21T17:09:42.179Z,25.77
2018-03-21T17:12:10.744Z,26.59
2018-03-21T17:14:39.342Z,26.77
2018-03-21T17:17:08.190Z,26.67
2018-03-21T17:19:36.921Z,26.84
2018-03-21T17:22:05.627Z,27.03
2018-03-21T17:24:34.284Z,26.79
2018-03-21T17:27:02.982Z,26.00
2018-03-21T17:29:31.669Z,26.29
2018-03-21T17:32:00.353Z,26.33
2018-03-21T17:34:29.036Z,26.10
2018-03-21T17:36:57.617Z,25.27
2018-03-21T17:39:26.354Z,25.21
2018-03-21T17:41:55.710Z,25.64
2018-03-21T17:44:24.413Z,25.78
2018-03-21T17:46:53.490Z,25.17
2018-03-21T17:49:22.126Z,25.65
2018-03-21T17:51:50.856Z,25.66
2018-03-21T17:54:19.854Z,26.39
2018-03-21T17:56:48.437Z,26.21
2018-03-21T17:59:17.123Z,25.69
2018-03-21T18:01:45.812Z,26.27
2018-03-21T18:04:14.518Z,26.11
2018-03-21T18:06:44.007Z,25.99
2018-03-21T18:09:12.996Z,26.14
2018-03-21T18:11:41.572Z,26.72
2018-03-21T18:14:10.258Z,26.81
2018-03-21T18:16:39.423Z,26.64
2018-03-21T18:19:08.115Z,27.14
2018-03-21T18:21:36.780Z,26.41
2018-03-21T18:24:05.882Z,26.74
2018-03-21T18:26:34.664Z,26.13
2018-03-21T18:29:03.349Z,26.32
2018-03-21T18:31:32.451Z,26.45
2018-03-21T18:34:01.022Z,26.18
2018-03-21T18:36:29.614Z,25.60
2018-03-21T18:38:58.602Z,26.17
2018-03-21T18:41:27.158Z,26.12
2018-03-21T18:43:55.723Z,26.22
2018-03-21T18:46:24.459Z,25.70
2018-03-21T18:48:53.019Z,26.05
2018-03-21T18:51:21.574Z,25.76
2018-03-21T18:53:50.941Z,26.20
2018-03-21T18:56:19.616Z,26.82
2018-03-21T18:58:48.302Z,25.66
2018-03-21T19:01:17.087Z,25.94
2018-03-21T19:03:45.677Z,26.81
2018-03-21T19:06:14.360Z,26.68
2018-03-21T19:08:43.454Z,26.81
2018-03-21T19:11:12.039Z,27.39
2018-03-21T19:13:40.655Z,27.14
2018-03-21T19:16:10.380Z,26.71
2018-03-21T19:18:39.801Z,26.81
2018-03-21T19:21:08.516Z,26.27
2018-03-21T19:23:37.417Z,24.87
2018-03-21T19:26:05.997Z,24.28
2018-03-21T19:28:34.557Z,23.43
2018-03-21T19:31:03.175Z,24.09
2018-03-21T19:33:31.741Z,22.86
2018-03-21T19:36:00.302Z,22.70
2018-03-21T19:38:29.370Z,23.76
2018-03-21T19:40:58.787Z,22.10
2018-03-21T19:43:27.511Z,23.04
2018-03-21T19:45:56.454Z,23.17
2018-03-21T19:48:25.288Z,22.80
2018-03-21T19:50:54.004Z,21.94
2018-03-21T19:53:22.925Z,22.77
2018-03-21T19:55:51.619Z,22.67
2018-03-21T19:58:20.338Z,23.41
2018-03-21T20:00:49.134Z,23.42
2018-03-21T20:03:17.820Z,23.46
2018-03-21T20:05:46.483Z,23.53
2018-03-21T20:08:16.006Z,24.27
2018-03-21T20:10:44.652Z,22.83
2018-03-21T20:13:13.376Z,22.28
2018-03-21T20:15:42.170Z,23.38
2018-03-21T20:18:11.164Z,22.34
2018-03-21T20:20:39.849Z,23.56
2018-03-21T20:23:08.817Z,23.18
2018-03-21T20:25:37.528Z,24.12
2018-03-21T20:28:06.313Z,24.20
2018-03-21T20:30:35.047Z,25.04
2018-03-21T20:33:04.401Z,25.31
2018-03-21T20:35:33.086Z,25.83
2018-03-21T20:38:01.775Z,26.37
2018-03-21T20:40:30.519Z,26.32
2018-03-21T20:42:59.250Z,25.39
2018-03-21T20:45:27.930Z,25.47
2018-03-21T20:47:56.625Z,23.39
2018-03-21T20:50:25.307Z,24.66
2018-03-21T20:52:54.159Z,23.92
2018-03-21T20:55:22.880Z,23.91
2018-03-21T20:57:51.521Z,23.40
2018-03-21T21:00:20.349Z,23.42
2018-03-21T21:02:49.044Z,23.30
2018-03-21T21:05:18.223Z,23.80
2018-03-21T21:07:46.929Z,23.32
2018-03-21T21:10:15.716Z,22.14
2018-03-21T21:12:44.410Z,22.78
2018-03-21T21:15:13.145Z,22.19
2018-03-21T21:17:41.811Z,21.95
2018-03-21T21:20:11.277Z,20.74
2018-03-21T21:22:40.267Z,19.69
2018-03-21T21:25:08.858Z,20.04
2018-03-21T21:27:37.531Z,20.02
2018-03-21T21:30:06.531Z,19.80
2018-03-21T21:32:35.094Z,19.81
2018-03-21T21:35:03.735Z,19.62
2018-03-21T21:37:33.456Z,19.38
2018-03-21T21:40:02.876Z,19.75
2018-03-21T21:42:31.594Z,19.58
2018-03-21T21:45:00.618Z,20.66
2018-03-21T21:47:30.101Z,19.83
2018-03-21T21:49:58.663Z,20.75
2018-03-21T21:52:27.676Z,19.81
2018-03-21T21:54:56.363Z,20.19
2018-03-21T21:57:25.146Z,20.32
2018-03-21T21:59:53.837Z,19.78
2018-03-21T22:02:22.620Z,19.07
2018-03-21T22:04:51.302Z,19.92
2018-03-21T22:07:20.295Z,19.54
2018-03-21T22:09:48.962Z,19.48
2018-03-21T22:12:23.358Z,20.00
2018-03-21T22:14:51.859Z,20.15
2018-03-21T22:17:20.351Z,19.41
2018-03-21T22:19:49.129Z,19.72
2018-03-21T22:22:17.635Z,19.51
2018-03-21T22:24:46.124Z,19.26
2018-03-21T22:27:14.841Z,19.21
2018-03-21T22:29:43.327Z,19.57
2018-03-21T22:32:12.587Z,19.10
2018-03-21T22:34:41.128Z,19.89
2018-03-21T22:37:10.383Z,19.85
2018-03-21T22:39:38.861Z,19.12
2018-03-21T22:42:07.405Z,19.98
2018-03-21T22:44:35.895Z,19.24
2018-03-21T22:47:04.499Z,19.73
2018-03-21T22:49:33.483Z,19.64
2018-03-21T22:52:01.981Z,19.75
2018-03-21T22:54:30.647Z,20.27
2018-03-21T22:56:59.799Z,19.56
2018-03-21T22:59:29.048Z,20.01
2018-03-21T23:01:57.685Z,20.32
2018-03-21T23:04:27.344Z,18.16
2018-03-21T23:06:56.030Z,18.71
2018-03-21T23:09:24.664Z,19.07
2018-03-21T23:11:54.130Z,18.81
2018-03-21T23:14:22.799Z,18.95
2018-03-21T23:16:51.485Z,18.74
2018-03-21T23:19:20.281Z,18.54
2018-03-21T23:21:48.926Z,17.65
2018-03-21T23:24:17.647Z,18.45
2018-03-21T23:26:48.110Z,18.10
2018-03-21T23:29:17.581Z,18.22
2018-03-21T23:31:46.267Z,18.05
2018-03-21T23:34:15.113Z,18.26
2018-03-21T23:36:43.846Z,17.82
2018-03-21T23:39:12.533Z,17.63
2018-03-21T23:41:41.270Z,17.99
2018-03-21T23:44:10.004Z,18.09
2018-03-21T23:46:39.556Z,18.25
2018-03-21T23:49:09.021Z,18.43
2018-03-21T23:51:37.695Z,18.41
2018-03-21T23:54:06.380Z,19.01
2018-03-21T23:56:35.176Z,18.12
2018-03-21T23:59:03.862Z,18.14
